This is the latest recevied weather packets stored in our database for station/object WC4PEM-4. If no packets are shown the sender has not sent any weather packets the latest 10 day(s).
| Time | Temp. | Humidity | Pressure | Rain* | Wind** | Luminosity | Snow |
|---|---|---|---|---|---|---|---|
| 1788557770 | 27.78° C | 80% | 1013.6 hPa | 0 mm | - | - | - |
| 1788557754 | 28.33° C | 79% | 1014.2 hPa | 0 mm | - | - | - |
| 1788557470 | 28.33° C | 79% | 1014.2 hPa | 0 mm | - | - | - |
| 1788557423 | 28.89° C | 77% | 1014.2 hPa | 0 mm | - | - | - |
| 1788557170 | 28.89° C | 77% | 1014.2 hPa | 0 mm | - | - | - |
| 1788556870 | 29.44° C | 77% | 1014.2 hPa | 0 mm | - | - | - |
| 1788556570 | 30° C | 75% | 1014.3 hPa | 0 mm | - | - | - |
| 1788556270 | 30.56° C | 73% | 1013.8 hPa | 0 mm | - | - | - |
| 1788555970 | 31.67° C | 71% | 1014.1 hPa | 0 mm | - | - | - |
| 1788555670 | 32.22° C | 67% | 1014.1 hPa | 0 mm | - | - | - |
| 1788555370 | 32.22° C | 67% | 1014 hPa | 0 mm | - | - | - |
| 1788555070 | 32.22° C | 66% | 1013.6 hPa | 0 mm | - | - | - |
| 1788554770 | 32.22° C | 67% | 1013.3 hPa | 0 mm | - | - | - |
| 1788554470 | 32.22° C | 64% | 1013.4 hPa | 0 mm | - | - | - |
| 1788554170 | 32.22° C | 66% | 1013.7 hPa | 0 mm | - | - | - |
| 1788553870 | 32.22° C | 65% | 1013.6 hPa | 0 mm | - | - | - |
| 1788553570 | 32.22° C | 65% | 1013.5 hPa | 1.27 mm | - | - | - |
| 1788553270 | 31.67° C | 67% | 1013.4 hPa | 1.27 mm | - | - | - |
| 1788552970 | 31.67° C | 67% | 1013.3 hPa | 1.27 mm | - | - | - |
| 1788552806 | 31.67° C | 67% | 1013.3 hPa | 1.27 mm | - | - | - |
| 1788552670 | 31.67° C | 67% | 1013.3 hPa | 1.27 mm | - | - | - |
| 1788552370 | 31.67° C | 67% | 1013.4 hPa | 1.27 mm | - | - | - |
| 1788552275 | 31.11° C | 71% | 1013.4 hPa | 1.27 mm | - | - | - |
| 1788552070 | 31.11° C | 71% | 1013.4 hPa | 1.27 mm | - | - | - |
| 1788551770 | 30.56° C | 70% | 1013.5 hPa | 1.27 mm | - | - | - |
* Rain latest hour (hover to see other rain measurements)
** Current wind speed in m/s (hover to see current wind gust speed)